createdAt,value
2023-02-05T00:01:37.593Z,87.07
2023-02-05T00:04:04.945Z,101.17
2023-02-05T00:06:32.170Z,102.77
2023-02-05T00:08:59.273Z,103.37
2023-02-05T00:11:26.583Z,113.43
2023-02-05T00:13:54.210Z,119.80
2023-02-05T00:16:23.840Z,109.83
2023-02-05T00:18:52.585Z,134.67
2023-02-05T00:21:21.720Z,126.43
2023-02-05T00:23:50.106Z,125.80
2023-02-05T00:26:17.767Z,125.57
2023-02-05T00:28:45.208Z,130.20
2023-02-05T00:31:20.050Z,126.87
2023-02-05T00:33:49.429Z,132.43
2023-02-05T00:36:17.756Z,130.70
2023-02-05T00:38:45.612Z,133.43
2023-02-05T00:41:14.276Z,131.60
2023-02-05T00:43:42.344Z,127.87
2023-02-05T00:46:11.550Z,134.83
2023-02-05T00:48:39.558Z,131.63
2023-02-05T00:51:08.937Z,134.17
2023-02-05T00:53:35.985Z,134.43
2023-02-05T00:56:03.201Z,129.70
2023-02-05T00:58:30.286Z,133.93
2023-02-05T01:00:58.581Z,128.50
2023-02-05T01:03:26.132Z,130.33
2023-02-05T01:05:53.306Z,126.87
2023-02-05T01:08:20.463Z,132.43
2023-02-05T01:10:50.330Z,135.73
2023-02-05T01:13:19.191Z,132.73
2023-02-05T01:15:46.444Z,125.17
2023-02-05T01:18:14.175Z,130.97
2023-02-05T01:20:43.448Z,122.70
2023-02-05T01:23:11.651Z,129.30
2023-02-05T01:25:39.163Z,129.80
2023-02-05T01:28:07.068Z,134.57
2023-02-05T01:30:35.347Z,135.50
2023-02-05T01:33:04.647Z,134.20
2023-02-05T01:35:32.644Z,137.70
2023-02-05T01:38:00.037Z,134.27
2023-02-05T01:40:27.633Z,139.47
2023-02-05T01:42:54.784Z,130.47
2023-02-05T01:45:32.823Z,129.77
2023-02-05T01:48:03.235Z,129.87
2023-02-05T01:50:45.604Z,139.50
2023-02-05T01:53:20.735Z,133.63
2023-02-05T01:56:00.365Z,127.53
2023-02-05T01:58:32.793Z,134.90
2023-02-05T02:01:00.115Z,126.10
2023-02-05T02:03:30.705Z,131.20
2023-02-05T02:05:58.040Z,135.30
2023-02-05T02:08:25.557Z,96.70
2023-02-05T02:10:57.051Z,109.40
2023-02-05T02:13:26.572Z,120.67
2023-02-05T02:15:54.150Z,323.77
2023-02-05T02:18:27.945Z,741.33
2023-02-05T02:21:58.856Z,953.10
2023-02-05T02:24:51.407Z,1877.23
2023-02-05T02:27:36.474Z,987.03
2023-02-05T02:30:24.294Z,240.87
2023-02-05T02:32:58.925Z,168.77
2023-02-05T02:35:35.875Z,138.20
2023-02-05T02:38:54.135Z,135.77
2023-02-05T02:41:36.536Z,130.53
2023-02-05T02:44:32.848Z,133.57
2023-02-05T02:47:10.295Z,125.17
2023-02-05T02:49:44.771Z,148.90
2023-02-05T02:52:15.580Z,135.87
2023-02-05T02:54:47.405Z,136.90
2023-02-05T02:57:17.730Z,135.57
2023-02-05T02:59:48.129Z,136.13
2023-02-05T03:02:17.050Z,133.30
2023-02-05T03:04:52.247Z,127.57
2023-02-05T03:07:52.865Z,132.77
2023-02-05T03:10:33.431Z,113.67
2023-02-05T03:13:00.573Z,133.73
2023-02-05T03:15:29.047Z,144.43
2023-02-05T03:17:57.682Z,132.20
2023-02-05T03:20:34.309Z,135.90
2023-02-05T03:23:01.424Z,135.87
2023-02-05T03:25:30.924Z,136.10
2023-02-05T03:28:00.212Z,132.33
2023-02-05T03:30:57.976Z,116.63
2023-02-05T03:33:39.716Z,109.20
2023-02-05T03:36:28.382Z,105.50
2023-02-05T03:39:35.534Z,108.37
2023-02-05T03:42:24.156Z,101.73
2023-02-05T03:45:43.724Z,106.20
2023-02-05T03:48:35.719Z,114.70
2023-02-05T03:51:40.124Z,122.60
2023-02-05T03:54:18.959Z,126.10
2023-02-05T03:56:55.509Z,129.23
2023-02-05T03:59:24.721Z,132.57
2023-02-05T04:01:52.585Z,134.30
2023-02-05T04:04:21.715Z,121.13
2023-02-05T04:06:52.760Z,125.20
2023-02-05T04:09:20.273Z,126.93
2023-02-05T04:11:47.352Z,133.63
2023-02-05T04:14:14.795Z,126.87
2023-02-05T04:16:43.991Z,130.93
2023-02-05T04:19:12.480Z,131.10
2023-02-05T04:21:39.955Z,128.00
2023-02-05T04:24:08.324Z,132.17
2023-02-05T04:26:35.779Z,134.47
2023-02-05T04:29:05.687Z,130.27
2023-02-05T04:31:38.047Z,128.33
2023-02-05T04:34:05.719Z,121.57
2023-02-05T04:36:33.248Z,122.83
2023-02-05T04:39:02.199Z,128.70
2023-02-05T04:41:30.270Z,128.07
2023-02-05T04:43:57.321Z,131.73
2023-02-05T04:46:24.577Z,130.50
2023-02-05T04:48:51.636Z,130.27
2023-02-05T04:51:18.853Z,127.37
2023-02-05T04:53:45.904Z,127.77
2023-02-05T04:56:17.867Z,132.17
2023-02-05T04:58:45.574Z,132.03
2023-02-05T05:01:16.609Z,129.57
2023-02-05T05:03:44.094Z,136.83
2023-02-05T05:06:12.319Z,131.27
2023-02-05T05:08:39.533Z,136.47
2023-02-05T05:11:12.827Z,135.87
2023-02-05T05:13:40.661Z,135.67
2023-02-05T05:16:09.094Z,134.37
2023-02-05T05:18:37.034Z,125.23
2023-02-05T05:21:05.641Z,132.03
2023-02-05T05:23:33.866Z,130.93
2023-02-05T05:26:08.743Z,138.20
2023-02-05T05:28:36.824Z,133.03
2023-02-05T05:31:22.364Z,126.63
2023-02-05T05:33:50.567Z,128.87
2023-02-05T05:36:19.359Z,138.13
2023-02-05T05:38:46.402Z,132.03
2023-02-05T05:41:41.913Z,135.17
2023-02-05T05:44:10.168Z,143.00
2023-02-05T05:46:37.375Z,117.27
2023-02-05T05:49:04.707Z,127.60
2023-02-05T05:51:33.348Z,113.50
2023-02-05T05:54:00.521Z,110.43
2023-02-05T05:56:27.690Z,115.23
2023-02-05T05:58:54.830Z,109.00
2023-02-05T06:01:23.028Z,105.50
2023-02-05T06:03:50.479Z,109.40
2023-02-05T06:06:17.601Z,116.80
2023-02-05T06:08:44.865Z,109.13
2023-02-05T06:11:12.409Z,104.67
2023-02-05T06:13:40.103Z,108.73
2023-02-05T06:16:07.473Z,120.87
2023-02-05T06:18:34.683Z,120.17
2023-02-05T06:21:03.275Z,116.90
2023-02-05T06:23:30.391Z,126.10
2023-02-05T06:25:57.783Z,120.43
2023-02-05T06:28:24.957Z,122.30
2023-02-05T06:30:52.227Z,142.17
2023-02-05T06:33:19.348Z,130.67
2023-02-05T06:35:47.160Z,139.57
2023-02-05T06:38:14.217Z,134.40
2023-02-05T06:40:41.305Z,131.10
2023-02-05T06:43:08.428Z,227.67
2023-02-05T06:45:35.757Z,176.33
2023-02-05T06:48:03.184Z,340.40
2023-02-05T06:50:30.384Z,312.43
2023-02-05T06:52:57.516Z,273.43
2023-02-05T06:55:24.784Z,203.50
2023-02-05T06:57:51.914Z,172.40
2023-02-05T07:00:19.367Z,204.97
2023-02-05T07:02:46.557Z,162.10
2023-02-05T07:05:13.648Z,152.00
2023-02-05T07:07:40.968Z,170.40
2023-02-05T07:10:08.814Z,135.27
2023-02-05T07:12:35.876Z,139.60
2023-02-05T07:15:03.033Z,158.33
2023-02-05T07:17:30.142Z,148.27
2023-02-05T07:19:58.830Z,132.10
2023-02-05T07:22:26.195Z,142.23
2023-02-05T07:24:53.333Z,128.37
2023-02-05T07:27:20.463Z,146.63
2023-02-05T07:29:47.909Z,145.00
2023-02-05T07:32:14.973Z,147.70
2023-02-05T07:34:42.370Z,142.60
2023-02-05T07:37:13.132Z,138.87
2023-02-05T07:39:40.301Z,138.87
2023-02-05T07:42:07.404Z,142.10
2023-02-05T07:44:42.551Z,137.70
2023-02-05T07:47:09.680Z,140.30
2023-02-05T07:49:36.794Z,130.60
2023-02-05T07:52:04.092Z,137.50
2023-02-05T07:54:31.110Z,179.63
2023-02-05T07:57:00.433Z,141.10
2023-02-05T07:59:27.844Z,139.63
2023-02-05T08:01:54.884Z,150.47
2023-02-05T08:04:21.986Z,139.53
2023-02-05T08:06:49.067Z,138.17
2023-02-05T08:09:16.851Z,138.17
2023-02-05T08:11:43.966Z,144.43
2023-02-05T08:14:11.006Z,138.90
2023-02-05T08:16:38.245Z,123.97
2023-02-05T08:19:06.869Z,123.53
2023-02-05T08:21:33.930Z,120.90
2023-02-05T08:24:01.919Z,151.00
2023-02-05T08:26:28.965Z,164.03
2023-02-05T08:28:56.179Z,175.50
2023-02-05T08:31:23.416Z,147.93
2023-02-05T08:33:52.948Z,136.20
2023-02-05T08:36:20.072Z,144.07
2023-02-05T08:38:47.540Z,138.70
2023-02-05T08:41:14.913Z,152.23
2023-02-05T08:43:48.306Z,140.53
2023-02-05T08:46:21.161Z,130.03
2023-02-05T08:48:49.254Z,134.93
2023-02-05T08:51:17.158Z,142.87
2023-02-05T08:53:44.288Z,157.93
2023-02-05T08:56:14.015Z,148.03
2023-02-05T08:58:41.786Z,131.27
2023-02-05T09:01:13.603Z,128.57
2023-02-05T09:03:41.290Z,129.70
2023-02-05T09:06:12.810Z,128.97
2023-02-05T09:08:41.022Z,135.73
2023-02-05T09:11:08.545Z,145.33
2023-02-05T09:13:36.009Z,129.13
2023-02-05T09:16:03.125Z,122.37
2023-02-05T09:18:30.316Z,103.53
2023-02-05T09:20:57.387Z,121.27
2023-02-05T09:23:24.688Z,134.70
2023-02-05T09:25:51.717Z,121.57
2023-02-05T09:28:18.876Z,118.60
2023-02-05T09:30:46.545Z,108.80
2023-02-05T09:33:14.497Z,114.53
2023-02-05T09:35:42.286Z,117.37
2023-02-05T09:38:13.394Z,126.13
2023-02-05T09:41:04.400Z,122.47
2023-02-05T09:44:08.557Z,118.90
2023-02-05T09:46:55.476Z,110.60
2023-02-05T09:49:31.409Z,107.67
2023-02-05T09:52:22.335Z,111.63
2023-02-05T09:54:59.137Z,111.17
2023-02-05T09:57:41.084Z,111.90
2023-02-05T10:00:25.935Z,114.17
2023-02-05T10:03:27.231Z,123.77
2023-02-05T10:06:06.377Z,131.87
2023-02-05T10:08:51.779Z,112.37
2023-02-05T10:11:42.339Z,125.30
2023-02-05T10:14:52.158Z,113.60
2023-02-05T10:17:53.568Z,114.03
2023-02-05T10:20:52.300Z,122.23
2023-02-05T10:23:58.906Z,121.57
2023-02-05T10:26:51.020Z,111.27
2023-02-05T10:29:45.808Z,135.17
2023-02-05T10:33:00.970Z,125.07
2023-02-05T10:35:58.609Z,125.90
2023-02-05T10:38:29.711Z,129.33
2023-02-05T10:41:05.440Z,127.70
2023-02-05T10:43:49.695Z,111.27
2023-02-05T10:46:18.396Z,122.47
2023-02-05T10:49:01.639Z,125.37
2023-02-05T10:51:38.116Z,119.33
2023-02-05T10:54:05.337Z,127.13
2023-02-05T10:56:32.776Z,137.93
2023-02-05T10:59:01.814Z,124.90
2023-02-05T11:01:32.717Z,121.63
2023-02-05T11:04:05.447Z,135.70
2023-02-05T11:06:43.334Z,132.57
2023-02-05T11:09:25.550Z,135.63
2023-02-05T11:12:02.906Z,131.93
2023-02-05T11:14:40.808Z,131.90
2023-02-05T11:17:24.558Z,134.37
2023-02-05T11:20:22.020Z,132.17
2023-02-05T11:22:49.814Z,135.33
2023-02-05T11:25:21.337Z,138.27
2023-02-05T11:28:00.017Z,136.77
2023-02-05T11:30:50.471Z,134.23
2023-02-05T11:33:27.098Z,130.60
2023-02-05T11:36:08.102Z,134.33
2023-02-05T11:38:54.806Z,137.17
2023-02-05T11:41:48.380Z,130.37
2023-02-05T11:44:32.260Z,123.50
2023-02-05T11:47:01.465Z,129.00
2023-02-05T11:49:41.084Z,138.70
2023-02-05T11:52:22.743Z,153.40
2023-02-05T11:54:50.239Z,139.93
2023-02-05T11:57:20.365Z,140.90
2023-02-05T12:00:02.751Z,136.87
2023-02-05T12:02:37.929Z,130.83
2023-02-05T12:05:13.283Z,133.97
2023-02-05T12:08:07.008Z,136.47
2023-02-05T12:11:04.753Z,134.90
2023-02-05T12:14:14.087Z,129.10
2023-02-05T12:16:53.951Z,129.13
2023-02-05T12:20:04.349Z,131.80
2023-02-05T12:23:07.555Z,158.03
2023-02-05T12:26:04.262Z,140.07
2023-02-05T12:28:53.754Z,161.30
2023-02-05T12:32:02.367Z,140.17
2023-02-05T12:35:15.715Z,181.03
2023-02-05T12:38:32.431Z,230.93
2023-02-05T12:41:05.843Z,144.20
2023-02-05T12:43:35.721Z,138.37
2023-02-05T12:46:27.129Z,134.90
2023-02-05T12:48:59.405Z,141.70
2023-02-05T12:51:39.487Z,133.77
2023-02-05T12:55:04.006Z,140.97
2023-02-05T12:57:50.224Z,131.00
2023-02-05T13:00:23.789Z,133.57
2023-02-05T13:03:17.064Z,137.97
2023-02-05T13:06:04.316Z,147.70
2023-02-05T13:09:16.102Z,127.90
2023-02-05T13:12:02.417Z,121.90
2023-02-05T13:14:38.141Z,117.10
2023-02-05T13:17:26.787Z,134.43
2023-02-05T13:20:03.022Z,120.90
2023-02-05T13:23:01.447Z,131.83
2023-02-05T13:25:59.448Z,123.47
2023-02-05T13:28:47.573Z,120.57
2023-02-05T13:31:38.760Z,126.20
2023-02-05T13:34:13.548Z,115.90
2023-02-05T13:37:00.413Z,122.00
2023-02-05T13:39:45.430Z,125.30
2023-02-05T13:42:45.864Z,129.37
2023-02-05T13:45:24.939Z,127.10
2023-02-05T13:48:32.888Z,115.57
2023-02-05T13:51:21.041Z,122.27
2023-02-05T13:54:23.624Z,123.93
2023-02-05T13:56:56.448Z,124.20
2023-02-05T13:59:44.552Z,476.03
2023-02-05T14:02:32.703Z,140.87
2023-02-05T14:05:02.290Z,120.70
2023-02-05T14:07:49.651Z,122.73
2023-02-05T14:10:36.798Z,122.77
2023-02-05T14:13:28.701Z,144.10
2023-02-05T14:15:57.508Z,133.57
2023-02-05T14:19:18.887Z,132.70
2023-02-05T14:21:45.881Z,126.33
2023-02-05T14:24:50.153Z,123.40
2023-02-05T14:27:35.637Z,140.10
2023-02-05T14:30:33.836Z,130.97
2023-02-05T14:33:03.266Z,121.23
2023-02-05T14:35:40.006Z,125.00
2023-02-05T14:38:34.205Z,125.70
2023-02-05T14:41:40.994Z,134.87
2023-02-05T14:44:17.841Z,140.67
2023-02-05T14:47:17.419Z,136.33
2023-02-05T14:49:47.517Z,132.60
2023-02-05T14:52:37.025Z,139.67
2023-02-05T14:55:13.213Z,131.97
2023-02-05T14:57:53.155Z,130.50
2023-02-05T15:00:35.325Z,118.27
2023-02-05T15:03:05.579Z,108.13
2023-02-05T15:05:46.701Z,111.73
2023-02-05T15:08:34.767Z,126.57
2023-02-05T15:11:29.787Z,115.70
2023-02-05T15:14:19.554Z,125.93
2023-02-05T15:17:06.529Z,138.47
2023-02-05T15:20:01.632Z,143.67
2023-02-05T15:22:37.631Z,139.43
2023-02-05T15:25:26.163Z,140.70
2023-02-05T15:28:00.128Z,141.20
2023-02-05T15:30:33.884Z,270.80
2023-02-05T15:33:28.395Z,225.47
2023-02-05T15:35:57.105Z,226.87
2023-02-05T15:38:48.927Z,162.43
2023-02-05T15:41:16.984Z,138.20
2023-02-05T15:44:00.682Z,201.17
2023-02-05T15:46:29.824Z,156.43
2023-02-05T15:48:58.720Z,157.53
2023-02-05T15:51:33.293Z,137.17
2023-02-05T15:54:03.733Z,106.87
2023-02-05T15:56:37.337Z,115.83
2023-02-05T15:59:10.186Z,118.77
2023-02-05T16:01:47.953Z,129.37
2023-02-05T16:04:30.929Z,142.80
2023-02-05T16:06:59.672Z,115.87
2023-02-05T16:09:30.303Z,124.63
2023-02-05T16:12:10.803Z,124.30
2023-02-05T16:14:37.882Z,124.70
2023-02-05T16:17:20.818Z,120.80
2023-02-05T16:20:39.043Z,120.80
2023-02-05T16:23:08.960Z,123.93
2023-02-05T16:25:52.908Z,125.50
2023-02-05T16:28:33.549Z,128.13
2023-02-05T16:31:01.888Z,129.47
2023-02-05T16:33:56.410Z,153.93
2023-02-05T16:36:29.921Z,149.63
2023-02-05T16:39:28.896Z,137.37
2023-02-05T16:42:38.197Z,134.70
2023-02-05T16:45:25.130Z,129.17
2023-02-05T16:48:27.381Z,130.07
2023-02-05T16:50:56.689Z,137.70
2023-02-05T16:53:28.295Z,134.73
2023-02-05T16:56:01.978Z,117.73
2023-02-05T16:58:38.712Z,124.77
2023-02-05T17:01:05.861Z,120.30
2023-02-05T17:03:41.037Z,138.17
2023-02-05T17:06:14.914Z,135.57
2023-02-05T17:08:45.475Z,132.30
2023-02-05T17:11:38.159Z,132.47
2023-02-05T17:14:32.857Z,124.87
2023-02-05T17:17:16.715Z,132.67
2023-02-05T17:19:44.778Z,144.23
2023-02-05T17:22:14.584Z,145.97
2023-02-05T17:24:42.760Z,305.73
2023-02-05T17:27:33.135Z,397.20
2023-02-05T17:30:00.854Z,298.20
2023-02-05T17:32:30.058Z,148.77
2023-02-05T17:34:57.346Z,160.43
2023-02-05T17:37:24.505Z,162.93
2023-02-05T17:39:51.626Z,140.07
2023-02-05T17:42:25.672Z,154.67
2023-02-05T17:44:53.721Z,130.87
2023-02-05T17:47:20.841Z,145.63
2023-02-05T17:49:48.173Z,139.00
2023-02-05T17:52:15.840Z,137.43
2023-02-05T17:54:45.247Z,144.63
2023-02-05T17:57:22.007Z,139.23
2023-02-05T17:59:49.972Z,149.83
2023-02-05T18:02:17.684Z,151.93
2023-02-05T18:04:45.263Z,145.00
2023-02-05T18:07:39.644Z,153.50
2023-02-05T18:10:08.341Z,157.57
2023-02-05T18:12:35.486Z,161.47
2023-02-05T18:15:02.552Z,164.27
2023-02-05T18:17:29.692Z,160.10
2023-02-05T18:19:56.734Z,150.03
2023-02-05T18:22:23.780Z,162.93
2023-02-05T18:24:50.858Z,152.63
2023-02-05T18:27:19.017Z,168.43
2023-02-05T18:29:49.875Z,149.20
2023-02-05T18:32:16.975Z,155.50
2023-02-05T18:34:44.064Z,183.10
2023-02-05T18:37:14.059Z,163.90
2023-02-05T18:39:41.287Z,159.03
2023-02-05T18:42:08.491Z,163.27
2023-02-05T18:44:35.822Z,168.20
2023-02-05T18:47:03.212Z,155.80
2023-02-05T18:49:30.253Z,151.77
2023-02-05T18:51:57.326Z,164.33
2023-02-05T18:54:24.501Z,163.43
2023-02-05T18:56:54.409Z,157.00
2023-02-05T18:59:24.125Z,154.50
2023-02-05T19:01:52.274Z,158.53
2023-02-05T19:04:21.055Z,160.57
2023-02-05T19:06:54.968Z,162.73
2023-02-05T19:09:24.360Z,160.50
2023-02-05T19:11:56.301Z,187.90
2023-02-05T19:14:25.845Z,152.83
2023-02-05T19:16:53.338Z,158.37
2023-02-05T19:19:25.778Z,164.00
2023-02-05T19:22:01.723Z,155.87
2023-02-05T19:24:29.400Z,163.47
2023-02-05T19:26:58.992Z,163.30
2023-02-05T19:29:26.842Z,153.20
2023-02-05T19:31:54.487Z,162.50
2023-02-05T19:34:24.733Z,161.13
2023-02-05T19:36:51.774Z,155.23
2023-02-05T19:39:18.828Z,160.57
2023-02-05T19:41:45.945Z,167.77
2023-02-05T19:44:13.322Z,165.13
2023-02-05T19:46:44.297Z,152.53
2023-02-05T19:49:24.781Z,157.13
2023-02-05T19:51:55.200Z,153.97
2023-02-05T19:54:23.036Z,155.33
2023-02-05T19:56:50.583Z,159.40
2023-02-05T19:59:18.227Z,154.00
2023-02-05T20:01:46.058Z,171.93
2023-02-05T20:04:22.328Z,166.70
2023-02-05T20:06:52.500Z,167.73
2023-02-05T20:09:19.853Z,164.00
2023-02-05T20:11:50.168Z,168.87
2023-02-05T20:14:18.020Z,163.37
2023-02-05T20:16:45.739Z,169.13
2023-02-05T20:19:14.882Z,163.20
2023-02-05T20:21:42.233Z,161.43
2023-02-05T20:24:10.237Z,163.17
2023-02-05T20:26:38.607Z,163.53
2023-02-05T20:29:25.861Z,164.70
2023-02-05T20:31:54.934Z,177.30
2023-02-05T20:34:30.588Z,167.07
2023-02-05T20:37:04.225Z,179.33
2023-02-05T20:39:34.889Z,165.23
2023-02-05T20:42:02.523Z,165.87
2023-02-05T20:44:32.236Z,185.43
2023-02-05T20:46:59.422Z,169.87
2023-02-05T20:49:26.572Z,171.37
2023-02-05T20:51:54.092Z,171.57
2023-02-05T20:54:22.729Z,172.97
2023-02-05T20:56:59.872Z,171.87
2023-02-05T20:59:32.858Z,169.50
2023-02-05T21:02:00.693Z,163.37
2023-02-05T21:04:27.803Z,182.93
2023-02-05T21:06:54.980Z,175.47
2023-02-05T21:09:22.940Z,238.53
2023-02-05T21:11:51.111Z,307.07
2023-02-05T21:14:18.243Z,267.13
2023-02-05T21:16:45.382Z,270.37
2023-02-05T21:19:12.484Z,230.60
2023-02-05T21:21:40.612Z,214.50
2023-02-05T21:24:12.612Z,256.67
2023-02-05T21:26:46.677Z,242.00
2023-02-05T21:29:17.487Z,198.10
2023-02-05T21:31:52.926Z,197.47
2023-02-05T21:34:25.159Z,207.03
2023-02-05T21:36:52.849Z,194.70
2023-02-05T21:39:23.018Z,204.93
2023-02-05T21:41:54.220Z,186.60
2023-02-05T21:44:21.981Z,170.93
2023-02-05T21:46:49.438Z,181.60
2023-02-05T21:49:16.560Z,161.17
2023-02-05T21:51:43.797Z,169.63
2023-02-05T21:54:11.375Z,157.80
2023-02-05T21:56:43.356Z,159.83
2023-02-05T21:59:12.378Z,163.50
2023-02-05T22:01:39.606Z,174.70
2023-02-05T22:04:14.635Z,161.90
2023-02-05T22:06:42.898Z,147.53
2023-02-05T22:09:13.743Z,154.13
2023-02-05T22:11:42.376Z,155.93
2023-02-05T22:14:11.077Z,154.83
2023-02-05T22:16:38.994Z,153.60
2023-02-05T22:19:07.366Z,152.50
2023-02-05T22:21:39.388Z,147.20
2023-02-05T22:24:08.267Z,159.03
2023-02-05T22:26:39.149Z,143.40
2023-02-05T22:29:11.075Z,156.03
2023-02-05T22:31:38.273Z,168.20
2023-02-05T22:34:05.799Z,161.73
2023-02-05T22:36:34.954Z,180.40
2023-02-05T22:39:04.010Z,174.60
2023-02-05T22:41:35.386Z,172.83
2023-02-05T22:44:04.862Z,171.63
2023-02-05T22:46:37.307Z,182.97
2023-02-05T22:49:05.296Z,170.47
2023-02-05T22:51:37.676Z,142.30
2023-02-05T22:54:06.588Z,146.00
2023-02-05T22:56:34.153Z,160.57
2023-02-05T22:59:03.275Z,166.77
2023-02-05T23:01:34.663Z,183.87
2023-02-05T23:04:04.254Z,182.67
2023-02-05T23:06:38.477Z,184.17
2023-02-05T23:09:15.937Z,172.23
2023-02-05T23:11:43.945Z,176.17
2023-02-05T23:14:13.559Z,191.43
2023-02-05T23:16:43.696Z,197.43
2023-02-05T23:19:18.582Z,230.90
2023-02-05T23:21:46.100Z,220.77
2023-02-05T23:24:14.069Z,213.23
2023-02-05T23:26:46.081Z,200.67
2023-02-05T23:29:15.697Z,185.97
2023-02-05T23:31:43.412Z,190.10
2023-02-05T23:34:11.335Z,189.63
2023-02-05T23:36:38.738Z,207.13
2023-02-05T23:39:05.977Z,198.07
2023-02-05T23:41:36.573Z,197.33
2023-02-05T23:44:17.781Z,217.43
2023-02-05T23:46:47.270Z,198.27
2023-02-05T23:49:15.371Z,177.20
2023-02-05T23:51:42.811Z,192.83
2023-02-05T23:54:11.376Z,182.10
2023-02-05T23:56:38.686Z,181.23
2023-02-05T23:59:07.181Z,174.40
